createdAt,value
2018-12-31T00:00:43.577Z,1.40
2018-12-31T00:10:47.154Z,1.60
2018-12-31T00:20:50.708Z,2.47
2018-12-31T00:30:54.306Z,1.83
2018-12-31T00:40:59.961Z,2.20
2018-12-31T00:51:03.787Z,3.00
2018-12-31T01:01:07.442Z,2.70
2018-12-31T01:11:23.277Z,2.20
2018-12-31T01:21:26.832Z,3.67
2018-12-31T01:31:30.385Z,3.60
2018-12-31T01:41:34.106Z,4.57
2018-12-31T01:51:37.678Z,3.30
2018-12-31T02:01:42.417Z,3.50
2018-12-31T02:11:45.969Z,2.90
2018-12-31T02:21:49.534Z,2.83
2018-12-31T02:31:53.108Z,3.20
2018-12-31T02:41:56.680Z,3.90
2018-12-31T02:52:00.266Z,3.10
2018-12-31T03:02:03.845Z,4.63
2018-12-31T03:12:07.414Z,4.20
2018-12-31T03:22:10.988Z,3.87
2018-12-31T03:32:14.551Z,4.47
2018-12-31T03:42:18.115Z,2.40
2018-12-31T03:52:21.694Z,2.33
2018-12-31T04:02:25.258Z,4.03
2018-12-31T04:12:28.867Z,4.07
2018-12-31T04:22:32.438Z,5.23
2018-12-31T04:32:36.002Z,3.27
2018-12-31T04:42:39.566Z,4.00
2018-12-31T04:52:43.158Z,5.20
2018-12-31T05:02:46.738Z,5.13
2018-12-31T05:12:50.300Z,3.77
2018-12-31T05:22:53.858Z,3.83
2018-12-31T05:32:57.424Z,3.70
2018-12-31T05:43:00.994Z,4.30
2018-12-31T05:53:04.586Z,3.63
2018-12-31T06:03:08.150Z,3.60
2018-12-31T06:13:11.718Z,4.30
2018-12-31T06:23:15.278Z,3.90
2018-12-31T06:33:18.846Z,4.80
2018-12-31T06:43:22.407Z,5.27
2018-12-31T06:53:25.986Z,5.70
2018-12-31T07:03:29.550Z,3.70
2018-12-31T07:13:33.108Z,3.23
2018-12-31T07:23:36.662Z,2.83
2018-12-31T07:33:40.218Z,4.30
2018-12-31T07:43:43.784Z,4.73
2018-12-31T07:53:47.358Z,3.50
2018-12-31T08:03:50.934Z,3.80
2018-12-31T08:13:54.507Z,3.07
2018-12-31T08:23:58.078Z,4.50
2018-12-31T08:34:01.646Z,3.70
2018-12-31T08:44:05.226Z,4.33
2018-12-31T08:54:08.802Z,3.10
2018-12-31T09:04:12.368Z,3.17
2018-12-31T09:14:15.942Z,4.00
2018-12-31T09:24:19.510Z,3.00
2018-12-31T09:34:23.086Z,1.73
2018-12-31T09:44:26.646Z,2.30
2018-12-31T09:54:30.235Z,3.63
2018-12-31T10:04:33.794Z,1.70
2018-12-31T10:14:37.368Z,1.93
2018-12-31T10:24:40.938Z,1.77
2018-12-31T10:34:44.502Z,2.43
2018-12-31T10:44:48.066Z,2.93
2018-12-31T10:54:51.651Z,2.60
2018-12-31T11:04:55.446Z,2.50
2018-12-31T11:14:59.011Z,2.30
2018-12-31T11:25:02.578Z,3.00
2018-12-31T11:35:06.870Z,1.97
2018-12-31T11:45:10.434Z,1.97
2018-12-31T11:55:14.015Z,1.97
2018-12-31T12:05:17.588Z,1.70
2018-12-31T12:15:21.375Z,1.43
2018-12-31T12:25:24.951Z,2.17
2018-12-31T12:35:28.526Z,1.90
2018-12-31T12:45:32.091Z,1.63
2018-12-31T12:55:35.673Z,1.90
2018-12-31T13:05:39.228Z,2.17
2018-12-31T13:15:42.795Z,2.80
2018-12-31T13:25:46.365Z,1.87
2018-12-31T13:36:25.188Z,2.33
2018-12-31T13:46:28.970Z,2.63
2018-12-31T13:56:57.633Z,3.70
2018-12-31T14:07:01.199Z,4.33
2018-12-31T14:17:04.771Z,3.43
2018-12-31T14:27:08.534Z,3.23
2018-12-31T14:37:12.919Z,3.60
2018-12-31T14:47:18.515Z,3.80
2018-12-31T14:57:45.886Z,4.00
2018-12-31T15:07:49.726Z,3.70
2018-12-31T15:17:53.298Z,4.70
2018-12-31T15:27:56.882Z,3.50
2018-12-31T15:38:00.501Z,3.83
2018-12-31T15:48:04.093Z,9.17
2018-12-31T15:58:07.674Z,5.47
2018-12-31T16:08:11.359Z,5.10
2018-12-31T16:18:15.125Z,5.70
2018-12-31T16:28:18.686Z,4.37
2018-12-31T16:38:22.634Z,4.27
2018-12-31T16:48:26.210Z,4.37
2018-12-31T16:58:30.010Z,3.83
2018-12-31T17:08:33.579Z,5.20
2018-12-31T17:18:38.249Z,3.90
2018-12-31T17:28:42.042Z,3.00
2018-12-31T17:38:52.722Z,4.77
2018-12-31T17:48:56.322Z,4.00
2018-12-31T17:58:59.938Z,3.70
2018-12-31T18:09:04.518Z,4.93
2018-12-31T18:19:08.103Z,9.30
2018-12-31T18:29:14.158Z,9.20
2018-12-31T18:39:17.735Z,4.33
2018-12-31T18:49:21.318Z,3.97
2018-12-31T18:59:24.937Z,5.17
2018-12-31T19:09:28.612Z,6.43
2018-12-31T19:19:32.231Z,5.60
2018-12-31T19:29:35.804Z,7.70
2018-12-31T19:39:39.410Z,30.07
2018-12-31T19:49:44.074Z,7.80
2018-12-31T19:59:47.638Z,5.33
2018-12-31T20:09:51.205Z,5.67
2018-12-31T20:19:54.770Z,7.70
2018-12-31T20:29:58.341Z,6.60
2018-12-31T20:40:01.991Z,11.80
2018-12-31T20:50:05.762Z,7.70
2018-12-31T21:00:09.328Z,7.43
2018-12-31T21:10:12.902Z,17.20
2018-12-31T21:20:16.482Z,13.43
2018-12-31T21:30:20.051Z,16.27
2018-12-31T21:40:23.638Z,27.07
2018-12-31T21:50:27.222Z,11.73
2018-12-31T22:00:30.790Z,13.00
2018-12-31T22:10:34.366Z,9.17
2018-12-31T22:20:37.929Z,7.13
2018-12-31T22:30:41.494Z,7.23
2018-12-31T22:40:45.054Z,8.23
2018-12-31T22:50:48.642Z,6.90
2018-12-31T23:00:52.219Z,14.00
2018-12-31T23:10:55.794Z,76.77
2018-12-31T23:20:59.378Z,73.87
2018-12-31T23:31:02.954Z,90.93
2018-12-31T23:41:06.527Z,63.03
2018-12-31T23:51:10.110Z,30.07
